createdAt,value
2017-11-15T00:01:21.745Z,100017.87
2017-11-15T00:03:50.040Z,100014.32
2017-11-15T00:06:18.338Z,100017.67
2017-11-15T00:08:46.607Z,100017.72
2017-11-15T00:11:14.881Z,100012.90
2017-11-15T00:13:43.149Z,100013.87
2017-11-15T00:16:11.434Z,100016.72
2017-11-15T00:18:39.705Z,100014.39
2017-11-15T00:21:07.972Z,100023.05
2017-11-15T00:23:36.263Z,100020.23
2017-11-15T00:26:04.522Z,100026.39
2017-11-15T00:28:32.808Z,100030.79
2017-11-15T00:31:01.102Z,100035.23
2017-11-15T00:33:29.390Z,100035.97
2017-11-15T00:35:57.634Z,100035.75
2017-11-15T00:38:25.916Z,100032.61
2017-11-15T00:40:54.167Z,100032.54
2017-11-15T00:43:22.447Z,100030.22
2017-11-15T00:45:50.725Z,100034.49
2017-11-15T00:48:19.019Z,100024.95
2017-11-15T00:50:47.309Z,100028.50
2017-11-15T00:53:15.569Z,100017.80
2017-11-15T00:55:43.871Z,100017.84
2017-11-15T00:58:12.134Z,100024.78
2017-11-15T01:00:40.471Z,100021.34
2017-11-15T01:03:08.722Z,100027.28
2017-11-15T01:05:36.982Z,100025.77
2017-11-15T01:08:05.293Z,100012.82
2017-11-15T01:10:33.650Z,100030.91
2017-11-15T01:13:01.905Z,100026.95
2017-11-15T01:15:30.160Z,100026.66
2017-11-15T01:17:58.451Z,100028.94
2017-11-15T01:20:26.713Z,100024.45
2017-11-15T01:22:54.994Z,100026.42
2017-11-15T01:25:23.273Z,100023.61
2017-11-15T01:27:51.557Z,100028.41
2017-11-15T01:30:19.869Z,100032.00
2017-11-15T01:32:48.206Z,100028.21
2017-11-15T01:35:16.494Z,100026.09
2017-11-15T01:37:44.755Z,100024.14
2017-11-15T01:40:13.052Z,100024.75
2017-11-15T01:42:41.308Z,100023.77
2017-11-15T01:45:09.604Z,100023.31
2017-11-15T01:47:37.860Z,100004.98
2017-11-15T01:50:06.139Z,100018.77
2017-11-15T01:52:34.399Z,100033.28
2017-11-15T01:55:02.689Z,100015.06
2017-11-15T01:57:30.968Z,100023.64
2017-11-15T01:59:59.259Z,100023.31
2017-11-15T02:02:27.509Z,100022.28
2017-11-15T02:04:55.784Z,100006.28
2017-11-15T02:07:24.057Z,100012.05
2017-11-15T02:09:52.400Z,100015.69
2017-11-15T02:12:20.661Z,100021.64
2017-11-15T02:14:48.952Z,100015.88
2017-11-15T02:17:17.552Z,100011.19
2017-11-15T02:19:45.843Z,100005.71
2017-11-15T02:22:14.084Z,100003.90
2017-11-15T02:24:42.410Z,99992.55
2017-11-15T02:27:10.682Z,99989.75
2017-11-15T02:29:38.940Z,99978.77
2017-11-15T02:32:07.228Z,99991.91
2017-11-15T02:34:35.511Z,99984.77
2017-11-15T02:37:03.775Z,99984.94
2017-11-15T02:39:32.123Z,99988.33
2017-11-15T02:42:00.340Z,99980.80
2017-11-15T02:44:28.624Z,99978.73
2017-11-15T02:46:56.887Z,99982.19
2017-11-15T02:49:25.184Z,99989.44
2017-11-15T02:51:53.442Z,99980.31
2017-11-15T02:54:21.717Z,99985.25
2017-11-15T02:56:49.972Z,99989.45
2017-11-15T02:59:18.270Z,99990.09
2017-11-15T03:01:46.518Z,99993.01
2017-11-15T03:04:14.821Z,100000.11
2017-11-15T03:06:43.070Z,99990.56
2017-11-15T03:09:11.345Z,100005.77
2017-11-15T03:11:39.600Z,100002.33
2017-11-15T03:14:07.908Z,99999.98
2017-11-15T03:16:36.212Z,99994.47
2017-11-15T03:19:04.446Z,99994.62
2017-11-15T03:21:32.712Z,99990.74
2017-11-15T03:24:01.004Z,99979.97
2017-11-15T03:26:29.264Z,99993.33
2017-11-15T03:28:57.563Z,99982.08
2017-11-15T03:31:26.513Z,99977.34
2017-11-15T03:33:54.785Z,99974.53
2017-11-15T03:36:23.025Z,99988.19
2017-11-15T03:38:51.318Z,99987.91
2017-11-15T03:41:19.642Z,99979.69
2017-11-15T03:43:47.923Z,99981.20
2017-11-15T03:46:16.162Z,99980.91
2017-11-15T03:48:44.409Z,99977.33
2017-11-15T03:51:12.680Z,99967.42
2017-11-15T03:53:40.931Z,99954.56
2017-11-15T03:56:09.221Z,99964.98
2017-11-15T03:58:37.474Z,99959.09
2017-11-15T04:01:05.724Z,99966.20
2017-11-15T04:03:34.002Z,99972.73
2017-11-15T04:06:02.270Z,99969.79
2017-11-15T04:08:30.552Z,99973.30
2017-11-15T04:10:58.821Z,99963.27
2017-11-15T04:13:27.153Z,99969.91
2017-11-15T04:15:55.401Z,99974.16
2017-11-15T04:18:23.713Z,99976.44
2017-11-15T04:20:51.973Z,99978.45
2017-11-15T04:23:20.280Z,99979.28
2017-11-15T04:25:48.545Z,99978.61
2017-11-15T04:28:16.820Z,99979.00
2017-11-15T04:30:45.107Z,99983.47
2017-11-15T04:33:13.368Z,99963.70
2017-11-15T04:35:42.326Z,99974.97
2017-11-15T04:38:10.577Z,99970.41
2017-11-15T04:40:38.891Z,99973.11
2017-11-15T04:43:07.121Z,99982.45
2017-11-15T04:45:35.372Z,99974.73
2017-11-15T04:48:03.647Z,99978.61
2017-11-15T04:50:31.909Z,99981.31
2017-11-15T04:53:00.193Z,99977.39
2017-11-15T04:55:28.465Z,99978.23
2017-11-15T04:57:56.753Z,99975.81
2017-11-15T05:00:24.999Z,99976.19
2017-11-15T05:02:53.281Z,99964.46
2017-11-15T05:05:21.566Z,99979.97
2017-11-15T05:07:49.853Z,99976.33
2017-11-15T05:10:18.211Z,99977.77
2017-11-15T05:12:46.496Z,99981.03
2017-11-15T05:15:14.742Z,99982.60
2017-11-15T05:17:42.990Z,99976.93
2017-11-15T05:20:11.268Z,99983.50
2017-11-15T05:22:39.732Z,99997.04
2017-11-15T05:25:08.015Z,99987.44
2017-11-15T05:27:36.280Z,99981.93
2017-11-15T05:30:04.570Z,99985.34
2017-11-15T05:32:32.920Z,99985.95
2017-11-15T05:35:01.164Z,99987.67
2017-11-15T05:37:29.424Z,99991.02
2017-11-15T05:39:57.705Z,99993.42
2017-11-15T05:42:26.145Z,99993.12
2017-11-15T05:44:54.403Z,99976.96
2017-11-15T05:47:22.680Z,99985.28
2017-11-15T05:49:50.958Z,99982.95
2017-11-15T05:52:19.234Z,99988.99
2017-11-15T05:54:47.485Z,99991.08
2017-11-15T05:57:15.791Z,99993.10
2017-11-15T05:59:44.050Z,99993.98
2017-11-15T06:02:12.365Z,100003.39
2017-11-15T06:04:40.614Z,100005.58
2017-11-15T06:07:08.929Z,100008.05
2017-11-15T06:09:37.306Z,100014.26
2017-11-15T06:12:05.560Z,100013.27
2017-11-15T06:14:33.812Z,100004.59
2017-11-15T06:17:02.177Z,100002.59
2017-11-15T06:19:31.293Z,99999.64
2017-11-15T06:21:59.535Z,100008.02
2017-11-15T06:24:27.819Z,100005.33
2017-11-15T06:26:56.152Z,100003.16
2017-11-15T06:29:24.481Z,100003.45
2017-11-15T06:31:52.744Z,100019.77
2017-11-15T06:34:21.086Z,100014.00
2017-11-15T06:36:49.246Z,99999.52
2017-11-15T06:39:19.317Z,100006.71
2017-11-15T06:41:47.636Z,99990.52
2017-11-15T06:44:15.914Z,100019.34
2017-11-15T06:46:44.148Z,100014.46
2017-11-15T06:49:12.437Z,99996.14
2017-11-15T06:51:40.736Z,100016.23
2017-11-15T06:54:09.023Z,100014.80
2017-11-15T06:56:37.298Z,100017.95
2017-11-15T06:59:05.958Z,100025.36
2017-11-15T07:01:34.259Z,100026.05
2017-11-15T07:04:02.589Z,100015.88
2017-11-15T07:06:30.866Z,100016.70
2017-11-15T07:08:59.145Z,100021.84
2017-11-15T07:11:27.459Z,100023.39
2017-11-15T07:13:55.703Z,100026.33
2017-11-15T07:16:24.017Z,100018.90
2017-11-15T07:18:52.273Z,100024.45
2017-11-15T07:21:20.559Z,99961.81
2017-11-15T07:23:48.844Z,100034.52
2017-11-15T07:26:17.133Z,100033.40
2017-11-15T07:28:45.441Z,100035.58
2017-11-15T07:31:14.940Z,100024.55
2017-11-15T07:33:43.197Z,100034.41
2017-11-15T07:36:11.445Z,100041.47
2017-11-15T07:38:39.748Z,100045.09
2017-11-15T07:41:08.049Z,100041.72
2017-11-15T07:43:36.337Z,100032.70
2017-11-15T07:46:04.599Z,100042.80
2017-11-15T07:48:32.886Z,100042.06
2017-11-15T07:51:01.161Z,100050.53
2017-11-15T07:53:29.466Z,100049.48
2017-11-15T07:55:57.712Z,100047.54
2017-11-15T07:58:26.033Z,100047.50
2017-11-15T08:00:54.307Z,100046.69
2017-11-15T08:03:22.685Z,100035.11
2017-11-15T08:05:51.051Z,100044.88
2017-11-15T08:08:19.305Z,100045.79
2017-11-15T08:10:47.646Z,100049.18
2017-11-15T08:13:16.491Z,100044.25
2017-11-15T08:15:44.870Z,100046.14
2017-11-15T08:18:13.195Z,100051.47
2017-11-15T08:20:41.460Z,100052.61
2017-11-15T08:23:10.412Z,100060.81
2017-11-15T08:25:38.711Z,100062.16
2017-11-15T08:28:06.973Z,100064.98
2017-11-15T08:30:35.281Z,100072.69
2017-11-15T08:33:03.652Z,100066.47
2017-11-15T08:35:31.945Z,100073.13
2017-11-15T08:38:00.285Z,100065.52
2017-11-15T08:40:28.568Z,100064.25
2017-11-15T08:42:56.851Z,100058.59
2017-11-15T08:45:25.129Z,100068.38
2017-11-15T08:47:53.407Z,100060.61
2017-11-15T08:50:23.290Z,100055.77
2017-11-15T08:52:51.606Z,100059.02
2017-11-15T08:55:20.870Z,100065.55
2017-11-15T08:57:49.230Z,100056.38
2017-11-15T09:00:18.613Z,100043.28
2017-11-15T09:02:46.904Z,100056.00
2017-11-15T09:05:15.206Z,100063.45
2017-11-15T09:07:43.496Z,100057.95
2017-11-15T09:10:12.485Z,100066.44
2017-11-15T09:12:40.802Z,100065.62
2017-11-15T09:15:09.136Z,100070.36
2017-11-15T09:17:37.409Z,100071.19
2017-11-15T09:20:05.757Z,100070.33
2017-11-15T09:22:34.027Z,100059.95
2017-11-15T09:25:02.320Z,100062.49
2017-11-15T09:27:30.635Z,100062.47
2017-11-15T09:29:58.903Z,100061.79
2017-11-15T09:32:27.227Z,100059.38
2017-11-15T09:34:55.479Z,100061.91
2017-11-15T09:37:23.812Z,100071.36
2017-11-15T09:39:52.087Z,100070.02
2017-11-15T09:42:20.384Z,100067.92
2017-11-15T09:44:48.661Z,100072.02
2017-11-15T09:47:16.953Z,100017.22
2017-11-15T09:49:45.209Z,100068.30
2017-11-15T09:52:13.493Z,100070.20
2017-11-15T09:54:41.753Z,100067.67
2017-11-15T09:57:10.061Z,100065.59
2017-11-15T09:59:38.368Z,100067.08
2017-11-15T10:02:06.694Z,100066.50
2017-11-15T10:04:35.154Z,100065.51
2017-11-15T10:07:04.282Z,100068.01
2017-11-15T10:09:33.858Z,100060.87
2017-11-15T10:12:02.102Z,100056.94
2017-11-15T10:14:30.414Z,100060.17
2017-11-15T10:17:04.841Z,100048.57
2017-11-15T10:19:33.118Z,100056.44
2017-11-15T10:22:01.379Z,100035.69
2017-11-15T10:24:29.708Z,100050.70
2017-11-15T10:26:58.001Z,100045.16
2017-11-15T10:29:26.295Z,100039.39
2017-11-15T10:31:54.569Z,100044.81
2017-11-15T10:34:22.937Z,100041.88
2017-11-15T10:36:51.252Z,100030.37
2017-11-15T10:39:19.557Z,100019.38
2017-11-15T10:41:47.869Z,100021.72
2017-11-15T10:44:16.144Z,100016.20
2017-11-15T10:46:44.476Z,100024.25
2017-11-15T10:49:12.796Z,100017.41
2017-11-15T10:51:41.236Z,100005.63
2017-11-15T10:54:21.271Z,100015.16
2017-11-15T10:56:49.570Z,100016.02
2017-11-15T10:59:19.469Z,99895.49
2017-11-15T11:01:47.778Z,100008.69
2017-11-15T11:04:16.085Z,100011.61
2017-11-15T11:06:44.364Z,99998.14
2017-11-15T11:09:12.652Z,100003.86
2017-11-15T11:11:41.012Z,100007.38
2017-11-15T11:14:09.305Z,100003.64
2017-11-15T11:16:37.590Z,100003.25
2017-11-15T11:19:05.913Z,100006.09
2017-11-15T11:21:34.183Z,99993.91
2017-11-15T11:24:02.559Z,99991.78
2017-11-15T11:26:30.881Z,99995.97
2017-11-15T11:28:59.171Z,99996.44
2017-11-15T11:31:27.544Z,99989.84
2017-11-15T11:33:55.837Z,99997.91
2017-11-15T11:36:24.126Z,99979.76
2017-11-15T11:38:52.557Z,99968.63
2017-11-15T11:41:20.859Z,99978.40
2017-11-15T11:43:49.110Z,99954.91
2017-11-15T11:46:17.390Z,99959.17
2017-11-15T11:48:45.702Z,99964.95
2017-11-15T11:51:13.986Z,99951.33
2017-11-15T11:53:42.248Z,99959.45
2017-11-15T11:56:10.536Z,99960.16
2017-11-15T11:58:38.852Z,99958.34
2017-11-15T12:01:07.166Z,99953.77
2017-11-15T12:03:35.442Z,99952.58
2017-11-15T12:06:03.778Z,99947.63
2017-11-15T12:08:32.088Z,99949.27
2017-11-15T12:11:00.348Z,99938.41
2017-11-15T12:13:28.651Z,99925.80
2017-11-15T12:15:56.976Z,99919.28
2017-11-15T12:18:25.273Z,99926.18
2017-11-15T12:20:53.599Z,99930.03
2017-11-15T12:23:21.904Z,99920.15
2017-11-15T12:25:50.191Z,99914.92
2017-11-15T12:28:18.488Z,99917.85
2017-11-15T12:30:46.865Z,99908.98
2017-11-15T12:33:16.083Z,99910.95
2017-11-15T12:35:44.389Z,99902.79
2017-11-15T12:38:12.643Z,99904.05
2017-11-15T12:40:40.933Z,99905.30
2017-11-15T12:43:09.205Z,99895.63
2017-11-15T12:45:37.747Z,99896.30
2017-11-15T12:48:06.054Z,99883.73
2017-11-15T12:50:34.328Z,99888.19
2017-11-15T12:53:02.601Z,99886.59
2017-11-15T12:55:30.986Z,99881.77
2017-11-15T12:57:59.259Z,99887.53
2017-11-15T13:00:27.632Z,99891.84
2017-11-15T13:02:56.077Z,99891.64
2017-11-15T13:05:24.405Z,99893.66
2017-11-15T13:07:52.743Z,99896.52
2017-11-15T13:10:21.027Z,99893.48
2017-11-15T13:12:49.396Z,99887.13
2017-11-15T13:15:17.707Z,99881.22
2017-11-15T13:17:46.750Z,99877.09
2017-11-15T13:20:15.079Z,99881.05
2017-11-15T13:22:43.339Z,99882.08
2017-11-15T13:25:12.069Z,99874.40
2017-11-15T13:27:40.373Z,99872.44
2017-11-15T13:30:08.740Z,99866.18
2017-11-15T13:32:37.040Z,99869.61
2017-11-15T13:35:05.388Z,99870.21
2017-11-15T13:37:33.742Z,99865.30
2017-11-15T13:40:01.973Z,99862.08
2017-11-15T13:42:30.330Z,99870.07
2017-11-15T13:44:58.700Z,99868.84
2017-11-15T13:47:27.010Z,99861.16
2017-11-15T13:49:55.333Z,99866.70
2017-11-15T13:52:23.647Z,99863.72
2017-11-15T13:54:52.212Z,99869.28
2017-11-15T13:57:20.854Z,99845.74
2017-11-15T13:59:49.117Z,99875.52
2017-11-15T14:02:17.393Z,99862.28
2017-11-15T14:04:45.660Z,99865.75
2017-11-15T14:07:14.749Z,99862.63
2017-11-15T14:09:43.056Z,99866.19
2017-11-15T14:12:11.372Z,99862.74
2017-11-15T14:14:39.688Z,99863.28
2017-11-15T14:17:07.991Z,99866.07
2017-11-15T14:19:36.325Z,99854.84
2017-11-15T14:22:05.332Z,99856.98
2017-11-15T14:24:33.658Z,99869.70
2017-11-15T14:27:02.071Z,99868.25
2017-11-15T14:29:30.317Z,99876.08
2017-11-15T14:31:58.599Z,99871.96
2017-11-15T14:34:26.855Z,99857.66
2017-11-15T14:36:55.176Z,99857.69
2017-11-15T14:39:24.114Z,99863.68
2017-11-15T14:41:52.399Z,99868.04
2017-11-15T14:44:20.685Z,99864.89
2017-11-15T14:46:49.149Z,99867.12
2017-11-15T14:49:17.429Z,99867.16
2017-11-15T14:51:45.719Z,99872.14
2017-11-15T14:54:14.037Z,99881.48
2017-11-15T14:56:42.430Z,99878.36
2017-11-15T14:59:10.749Z,99866.64
2017-11-15T15:01:39.104Z,99869.03
2017-11-15T15:04:07.450Z,99874.73
2017-11-15T15:06:35.738Z,99872.19
2017-11-15T15:09:04.046Z,99869.02
2017-11-15T15:11:32.370Z,99867.89
2017-11-15T15:14:00.724Z,99874.88
2017-11-15T15:16:29.103Z,99864.30
2017-11-15T15:18:57.403Z,99870.55
2017-11-15T15:21:26.465Z,99868.26
2017-11-15T15:23:54.744Z,99843.42
2017-11-15T15:26:23.072Z,99867.72
2017-11-15T15:28:51.332Z,99872.83
2017-11-15T15:31:19.596Z,99865.83
2017-11-15T15:33:50.461Z,99865.27
2017-11-15T15:36:18.939Z,99862.94
2017-11-15T15:38:47.212Z,99855.67
2017-11-15T15:41:15.536Z,99867.20
2017-11-15T15:43:43.769Z,99869.08
2017-11-15T15:46:12.563Z,99868.45
2017-11-15T15:48:40.826Z,99870.83
2017-11-15T15:51:09.132Z,99861.95
2017-11-15T15:53:37.432Z,99874.89
2017-11-15T15:56:05.665Z,99876.10
2017-11-15T15:58:33.975Z,99846.27
2017-11-15T16:01:02.267Z,99874.80
2017-11-15T16:03:30.642Z,99874.50
2017-11-15T16:05:58.875Z,99880.80
2017-11-15T16:08:27.223Z,99886.95
2017-11-15T16:10:55.468Z,99891.08
2017-11-15T16:13:23.780Z,99894.23
2017-11-15T16:15:52.286Z,99898.05
2017-11-15T16:18:20.573Z,99902.28
2017-11-15T16:20:49.392Z,99898.97
2017-11-15T16:23:17.776Z,99897.52
2017-11-15T16:25:46.125Z,99904.58
2017-11-15T16:28:14.398Z,99900.84
2017-11-15T16:30:42.724Z,99903.61
2017-11-15T16:33:10.983Z,99899.41
2017-11-15T16:35:39.265Z,99899.17
2017-11-15T16:38:07.569Z,99897.17
2017-11-15T16:40:35.862Z,99898.33
2017-11-15T16:43:04.074Z,99904.26
2017-11-15T16:45:32.411Z,99895.31
2017-11-15T16:48:00.620Z,99888.05
2017-11-15T16:50:28.888Z,99887.50
2017-11-15T16:52:57.213Z,99886.02
2017-11-15T16:55:25.484Z,99884.06
2017-11-15T16:57:53.877Z,99893.68
2017-11-15T17:00:22.132Z,99878.20
2017-11-15T17:02:50.417Z,99893.87
2017-11-15T17:05:18.679Z,99896.34
2017-11-15T17:07:46.969Z,99898.00
2017-11-15T17:10:15.226Z,99893.63
2017-11-15T17:12:43.779Z,99902.14
2017-11-15T17:15:12.106Z,99901.28
2017-11-15T17:17:40.377Z,99905.95
2017-11-15T17:20:10.963Z,99916.43
2017-11-15T17:22:39.255Z,99920.03
2017-11-15T17:25:07.685Z,99917.03
2017-11-15T17:27:35.952Z,99921.23
2017-11-15T17:30:04.214Z,99915.50
2017-11-15T17:32:33.488Z,99910.45
2017-11-15T17:35:01.791Z,99920.48
2017-11-15T17:37:30.864Z,99926.98
2017-11-15T17:39:59.231Z,99930.54
2017-11-15T17:42:27.549Z,99925.89
2017-11-15T17:44:55.855Z,99914.41
2017-11-15T17:47:24.157Z,99921.73
2017-11-15T17:49:52.443Z,99918.44
2017-11-15T17:52:20.740Z,99921.61
2017-11-15T17:57:35.546Z,99858.40
2017-11-15T18:00:03.973Z,99909.72
2017-11-15T18:02:32.245Z,99907.31
2017-11-15T18:05:00.584Z,99905.15
2017-11-15T18:07:28.901Z,99907.88
2017-11-15T18:09:57.173Z,99915.39
2017-11-15T18:12:25.953Z,99921.09
2017-11-15T18:14:54.223Z,99910.98
2017-11-15T18:17:22.532Z,99916.55
2017-11-15T18:19:50.812Z,99898.42
2017-11-15T18:22:19.117Z,99931.02
2017-11-15T18:24:47.405Z,99911.81
2017-11-15T18:27:15.633Z,99911.66
2017-11-15T18:29:43.911Z,99913.59
2017-11-15T18:32:12.193Z,99925.80
2017-11-15T18:34:40.552Z,99934.89
2017-11-15T18:37:08.838Z,99929.48
2017-11-15T18:39:37.096Z,99929.02
2017-11-15T18:42:05.426Z,99923.55
2017-11-15T18:44:33.675Z,99919.61
2017-11-15T18:47:01.967Z,99922.95
2017-11-15T18:49:30.208Z,99919.93
2017-11-15T18:51:58.496Z,99925.96
2017-11-15T18:54:26.765Z,99916.97
2017-11-15T18:56:55.607Z,99918.14
2017-11-15T18:59:23.993Z,99916.52
2017-11-15T19:01:52.298Z,99921.21
2017-11-15T19:04:20.599Z,99914.40
2017-11-15T19:06:49.197Z,99897.38
2017-11-15T19:09:17.597Z,99917.40
2017-11-15T19:11:46.634Z,99910.94
2017-11-15T19:14:15.301Z,99902.86
2017-11-15T19:16:43.549Z,99901.44
2017-11-15T19:19:13.138Z,99902.81
2017-11-15T19:21:41.517Z,99900.48
2017-11-15T19:24:09.831Z,99869.34
2017-11-15T19:26:38.161Z,99910.11
2017-11-15T19:29:06.440Z,99901.56
2017-11-15T19:31:34.730Z,99910.53
2017-11-15T19:34:03.006Z,99912.04
2017-11-15T19:36:31.379Z,99912.88
2017-11-15T19:38:59.657Z,99910.05
2017-11-15T19:41:28.037Z,99914.18
2017-11-15T19:43:56.336Z,99911.56
2017-11-15T19:46:24.561Z,99911.67
2017-11-15T19:48:52.881Z,99896.77
2017-11-15T19:51:21.204Z,99911.16
2017-11-15T19:53:49.463Z,99899.48
2017-11-15T19:56:19.284Z,99898.24
2017-11-15T19:58:47.579Z,99911.77
2017-11-15T20:01:15.825Z,99916.16
2017-11-15T20:03:44.161Z,99914.44
2017-11-15T20:06:12.448Z,99916.75
2017-11-15T20:08:40.713Z,99900.25
2017-11-15T20:11:08.982Z,99907.49
2017-11-15T20:13:37.297Z,99914.97
2017-11-15T20:16:05.649Z,99910.63
2017-11-15T20:18:33.910Z,99907.20
2017-11-15T20:21:02.223Z,99904.50
2017-11-15T20:23:30.526Z,99914.16
2017-11-15T20:25:58.807Z,99912.22
2017-11-15T20:28:27.106Z,99911.42
2017-11-15T20:30:55.520Z,99914.92
2017-11-15T20:33:23.765Z,99918.64
2017-11-15T20:35:52.786Z,99909.25
2017-11-15T20:38:21.057Z,99907.63
2017-11-15T20:40:49.291Z,99895.16
2017-11-15T20:43:17.563Z,99897.48
2017-11-15T20:45:45.824Z,99903.25
2017-11-15T20:48:14.122Z,99901.92
2017-11-15T20:50:42.453Z,99898.20
2017-11-15T20:53:10.738Z,99898.38
2017-11-15T20:55:39.011Z,99902.52
2017-11-15T20:58:07.355Z,99896.88
2017-11-15T21:00:35.659Z,99893.55
2017-11-15T21:03:03.980Z,99891.05
2017-11-15T21:05:32.286Z,99891.77
2017-11-15T21:08:00.552Z,99886.61
2017-11-15T21:10:29.935Z,99887.89
2017-11-15T21:12:58.273Z,99881.76
2017-11-15T21:15:26.509Z,99890.23
2017-11-15T21:17:54.788Z,99895.54
2017-11-15T21:20:23.065Z,99883.55
2017-11-15T21:22:51.329Z,99893.84
2017-11-15T21:25:20.220Z,99899.42
2017-11-15T21:27:48.483Z,99901.42
2017-11-15T21:30:16.753Z,99898.52
2017-11-15T21:32:45.034Z,99896.80
2017-11-15T21:35:13.305Z,99894.59
2017-11-15T21:37:41.594Z,99895.00
2017-11-15T21:40:09.842Z,99888.06
2017-11-15T21:42:38.137Z,99896.78
2017-11-15T21:45:06.425Z,99876.73
2017-11-15T21:47:34.703Z,99888.59
2017-11-15T21:50:02.940Z,99874.90
2017-11-15T21:52:31.243Z,99875.19
2017-11-15T21:54:59.524Z,99885.53
2017-11-15T21:57:27.930Z,99888.66
2017-11-15T21:59:56.191Z,99884.91
2017-11-15T22:02:24.497Z,99883.17
2017-11-15T22:04:52.831Z,99867.44
2017-11-15T22:07:21.206Z,99870.11
2017-11-15T22:09:49.449Z,99877.05
2017-11-15T22:12:17.801Z,99877.45
2017-11-15T22:14:46.054Z,99867.79
2017-11-15T22:17:14.413Z,99870.31
2017-11-15T22:19:42.700Z,99869.47
2017-11-15T22:22:10.976Z,99873.59
2017-11-15T22:24:39.248Z,99876.41
2017-11-15T22:27:07.542Z,99853.59
2017-11-15T22:29:36.650Z,99873.73
2017-11-15T22:32:04.908Z,99867.00
2017-11-15T22:34:33.591Z,99855.72
2017-11-15T22:37:01.864Z,99866.63
2017-11-15T22:39:30.557Z,99867.61
2017-11-15T22:41:58.812Z,99869.31
2017-11-15T22:44:27.079Z,99872.19
2017-11-15T22:46:56.102Z,99873.48
2017-11-15T22:49:24.390Z,99861.05
2017-11-15T22:51:52.669Z,99855.24
2017-11-15T22:54:20.924Z,99853.03
2017-11-15T22:56:49.213Z,99850.72
2017-11-15T22:59:17.545Z,99843.03
2017-11-15T23:01:45.840Z,99847.61
2017-11-15T23:04:15.085Z,99851.30
2017-11-15T23:06:43.418Z,99852.22
2017-11-15T23:09:11.661Z,99844.83
2017-11-15T23:11:39.957Z,99837.45
2017-11-15T23:14:08.222Z,99843.34
2017-11-15T23:16:36.514Z,99846.32
2017-11-15T23:19:04.790Z,99841.30
2017-11-15T23:21:33.123Z,99843.88
2017-11-15T23:24:01.355Z,99842.03
2017-11-15T23:26:29.628Z,99841.05
2017-11-15T23:28:57.872Z,99843.05
2017-11-15T23:31:26.152Z,99840.23
2017-11-15T23:33:54.454Z,99840.19
2017-11-15T23:36:22.724Z,99799.95
2017-11-15T23:38:51.016Z,99846.90
2017-11-15T23:41:19.285Z,99839.27
2017-11-15T23:43:47.586Z,99836.33
2017-11-15T23:46:15.827Z,99834.86
2017-11-15T23:48:44.118Z,99835.50
2017-11-15T23:51:12.433Z,99841.00
2017-11-15T23:53:40.730Z,99840.39
2017-11-15T23:56:09.041Z,99843.95
2017-11-15T23:58:37.328Z,99838.48
